createdAt,value
2023-04-29T00:02:15.026Z,76.84
2023-04-29T00:04:41.834Z,77.08
2023-04-29T00:07:09.098Z,77.07
2023-04-29T00:09:36.224Z,77.14
2023-04-29T00:12:02.639Z,76.95
2023-04-29T00:14:29.049Z,76.76
2023-04-29T00:16:55.548Z,76.96
2023-04-29T00:19:22.097Z,76.99
2023-04-29T00:21:48.933Z,77.03
2023-04-29T00:24:15.518Z,76.77
2023-04-29T00:26:41.915Z,76.59
2023-04-29T00:29:08.321Z,76.55
2023-04-29T00:31:34.804Z,76.51
2023-04-29T00:34:01.260Z,76.69
2023-04-29T00:36:28.375Z,76.70
2023-04-29T00:38:55.065Z,76.81
2023-04-29T00:41:21.539Z,76.54
2023-04-29T00:43:47.944Z,76.73
2023-04-29T00:46:14.393Z,76.58
2023-04-29T00:48:41.485Z,76.44
2023-04-29T00:51:08.553Z,76.38
2023-04-29T00:53:35.640Z,76.51
2023-04-29T00:56:02.901Z,76.28
2023-04-29T00:58:35.285Z,76.37
2023-04-29T01:01:03.765Z,76.71
2023-04-29T01:03:31.679Z,76.64
2023-04-29T01:06:20.111Z,76.55
2023-04-29T01:09:17.245Z,76.46
2023-04-29T01:11:55.067Z,76.55
2023-04-29T01:14:23.903Z,76.69
2023-04-29T01:16:59.707Z,76.73
2023-04-29T01:19:41.742Z,76.75
2023-04-29T01:22:08.156Z,76.32
2023-04-29T01:24:34.753Z,76.31
2023-04-29T01:27:28.686Z,76.29
2023-04-29T01:30:07.846Z,76.26
2023-04-29T01:32:44.344Z,76.63
2023-04-29T01:35:53.825Z,76.36
2023-04-29T01:38:37.767Z,76.47
2023-04-29T01:41:15.157Z,76.24
2023-04-29T01:43:43.073Z,76.08
2023-04-29T01:46:11.690Z,76.40
2023-04-29T01:48:38.297Z,76.20
2023-04-29T01:51:06.504Z,76.27
2023-04-29T01:53:33.361Z,76.35
2023-04-29T01:55:59.781Z,76.40
2023-04-29T01:58:26.259Z,76.28
2023-04-29T02:00:52.806Z,76.32
2023-04-29T02:03:19.947Z,76.48
2023-04-29T02:05:46.435Z,76.15
2023-04-29T02:08:12.917Z,76.04
2023-04-29T02:10:39.308Z,76.23
2023-04-29T02:13:05.715Z,76.17
2023-04-29T02:15:32.153Z,76.07
2023-04-29T02:17:58.708Z,76.40
2023-04-29T02:20:25.099Z,76.55
2023-04-29T02:22:54.200Z,76.34
2023-04-29T02:25:20.984Z,76.23
2023-04-29T02:27:47.375Z,76.48
2023-04-29T02:30:13.780Z,76.28
2023-04-29T02:32:40.544Z,76.53
2023-04-29T02:35:08.361Z,76.74
2023-04-29T02:37:35.185Z,76.60
2023-04-29T02:40:02.122Z,76.65
2023-04-29T02:42:29.299Z,76.96
2023-04-29T02:44:55.750Z,76.89
2023-04-29T02:47:22.333Z,76.94
2023-04-29T02:49:48.944Z,77.19
2023-04-29T02:52:16.943Z,77.15
2023-04-29T02:54:43.651Z,77.10
2023-04-29T02:57:10.314Z,77.30
2023-04-29T02:59:37.012Z,77.05
2023-04-29T03:02:03.711Z,77.17
2023-04-29T03:04:30.313Z,77.10
2023-04-29T03:06:56.944Z,77.14
2023-04-29T03:09:23.835Z,77.07
2023-04-29T03:11:50.321Z,77.15
2023-04-29T03:14:17.116Z,77.13
2023-04-29T03:16:44.289Z,76.97
2023-04-29T03:19:10.792Z,76.91
2023-04-29T03:21:37.378Z,76.78
2023-04-29T03:24:03.873Z,76.43
2023-04-29T03:26:30.843Z,76.47
2023-04-29T03:28:58.515Z,76.34
2023-04-29T03:31:25.647Z,76.45
2023-04-29T03:33:53.494Z,76.27
2023-04-29T03:36:19.992Z,76.10
2023-04-29T03:38:46.389Z,76.19
2023-04-29T03:41:12.796Z,75.89
2023-04-29T03:43:39.302Z,76.16
2023-04-29T03:46:05.867Z,76.18
2023-04-29T03:48:32.894Z,76.41
2023-04-29T03:50:59.348Z,75.99
2023-04-29T03:53:26.266Z,76.25
2023-04-29T03:55:52.750Z,76.33
2023-04-29T03:58:19.246Z,76.46
2023-04-29T04:00:46.020Z,76.51
2023-04-29T04:03:12.608Z,76.54
2023-04-29T04:05:39.103Z,76.41
2023-04-29T04:08:06.113Z,76.79
2023-04-29T04:10:32.612Z,76.94
2023-04-29T04:12:58.999Z,76.78
2023-04-29T04:15:26.377Z,77.19
2023-04-29T04:17:52.790Z,76.93
2023-04-29T04:20:19.487Z,77.13
2023-04-29T04:22:45.895Z,76.97
2023-04-29T04:25:12.325Z,75.89
2023-04-29T04:27:38.741Z,75.72
2023-04-29T04:30:05.711Z,75.88
2023-04-29T04:32:32.190Z,76.02
2023-04-29T04:34:58.704Z,76.41
2023-04-29T04:37:25.116Z,76.47
2023-04-29T04:39:51.760Z,76.41
2023-04-29T04:42:18.401Z,76.27
2023-04-29T04:44:44.816Z,76.34
2023-04-29T04:47:11.804Z,76.50
2023-04-29T04:49:38.274Z,76.82
2023-04-29T04:52:04.987Z,76.72
2023-04-29T04:54:31.823Z,77.06
2023-04-29T04:56:58.224Z,77.18
2023-04-29T04:59:24.608Z,77.15
2023-04-29T05:01:51.008Z,76.86
2023-04-29T05:04:17.628Z,77.05
2023-04-29T05:06:44.182Z,77.06
2023-04-29T05:09:10.924Z,77.40
2023-04-29T05:11:37.822Z,77.28
2023-04-29T05:14:04.240Z,77.23
2023-04-29T05:16:30.808Z,77.23
2023-04-29T05:18:57.308Z,77.75
2023-04-29T05:21:23.782Z,77.45
2023-04-29T05:23:50.294Z,77.31
2023-04-29T05:26:16.784Z,77.52
2023-04-29T05:28:43.191Z,77.33
2023-04-29T05:31:09.710Z,77.66
2023-04-29T05:33:36.153Z,77.52
2023-04-29T05:36:02.681Z,77.17
2023-04-29T05:38:29.230Z,77.02
2023-04-29T05:40:56.533Z,76.87
2023-04-29T05:43:23.026Z,76.72
2023-04-29T05:45:49.594Z,76.43
2023-04-29T05:48:16.363Z,76.11
2023-04-29T05:50:42.898Z,75.75
2023-04-29T05:53:09.310Z,75.96
2023-04-29T05:55:35.855Z,75.90
2023-04-29T05:58:02.317Z,75.65
2023-04-29T06:00:28.708Z,75.53
2023-04-29T06:02:59.103Z,75.56
2023-04-29T06:05:26.953Z,75.13
2023-04-29T06:07:53.865Z,74.97
2023-04-29T06:10:20.278Z,75.14
2023-04-29T06:12:47.357Z,75.11
2023-04-29T06:15:13.972Z,74.44
2023-04-29T06:17:40.528Z,75.14
2023-04-29T06:20:07.661Z,73.66
2023-04-29T06:22:34.049Z,73.33
2023-04-29T06:25:00.432Z,72.57
2023-04-29T06:27:26.833Z,72.80
2023-04-29T06:29:53.525Z,72.51
2023-04-29T06:32:20.163Z,71.02
2023-04-29T06:34:46.900Z,69.86
2023-04-29T06:37:13.588Z,70.66
2023-04-29T06:39:40.084Z,70.83
2023-04-29T06:42:06.500Z,70.84
2023-04-29T06:44:33.283Z,70.50
2023-04-29T06:46:59.873Z,70.19
2023-04-29T06:49:26.348Z,70.14
2023-04-29T06:51:53.098Z,70.23
2023-04-29T06:54:19.488Z,69.73
2023-04-29T06:56:46.008Z,69.88
2023-04-29T06:59:12.622Z,69.99
2023-04-29T07:01:40.620Z,69.66
2023-04-29T07:04:08.253Z,69.16
2023-04-29T07:06:34.656Z,68.15
2023-04-29T07:09:01.078Z,66.94
2023-04-29T07:11:27.588Z,67.42
2023-04-29T07:13:53.994Z,67.91
2023-04-29T07:16:21.970Z,68.29
2023-04-29T07:18:51.591Z,67.95
2023-04-29T07:21:18.026Z,68.53
2023-04-29T07:23:44.520Z,68.89
2023-04-29T07:26:12.138Z,68.14
2023-04-29T07:28:38.614Z,68.50
2023-04-29T07:31:05.331Z,67.85
2023-04-29T07:33:31.887Z,67.24
2023-04-29T07:35:58.397Z,67.13
2023-04-29T07:38:24.964Z,66.74
2023-04-29T07:40:51.416Z,66.53
2023-04-29T07:43:17.833Z,67.07
2023-04-29T07:45:44.270Z,67.09
2023-04-29T07:48:10.894Z,67.62
2023-04-29T07:50:37.384Z,67.85
2023-04-29T07:53:04.243Z,68.41
2023-04-29T07:55:31.155Z,68.10
2023-04-29T07:58:00.065Z,68.17
2023-04-29T08:00:28.311Z,68.15
2023-04-29T08:02:56.119Z,68.34
2023-04-29T08:05:23.587Z,68.44
2023-04-29T08:07:53.822Z,68.59
2023-04-29T08:10:22.489Z,68.72
2023-04-29T08:12:49.904Z,68.66
2023-04-29T08:15:18.437Z,68.76
2023-04-29T08:17:44.878Z,68.53
2023-04-29T08:20:11.774Z,67.76
2023-04-29T08:22:38.254Z,67.28
2023-04-29T08:25:05.789Z,66.99
2023-04-29T08:27:32.388Z,65.32
2023-04-29T08:29:59.151Z,65.08
2023-04-29T08:32:25.745Z,64.39
2023-04-29T08:34:52.879Z,64.59
2023-04-29T08:37:20.666Z,63.93
2023-04-29T08:39:47.966Z,63.38
2023-04-29T08:42:14.537Z,63.58
2023-04-29T08:44:41.878Z,63.00
2023-04-29T08:47:09.072Z,62.58
2023-04-29T08:49:38.098Z,62.99
2023-04-29T08:52:04.988Z,62.70
2023-04-29T08:54:32.871Z,62.25
2023-04-29T08:57:00.456Z,62.26
2023-04-29T08:59:29.198Z,62.09
2023-04-29T09:01:57.265Z,61.00
2023-04-29T09:04:32.829Z,61.14
2023-04-29T09:06:59.559Z,61.16
2023-04-29T09:09:26.424Z,61.03
2023-04-29T09:11:53.456Z,61.48
2023-04-29T09:14:20.849Z,61.21
2023-04-29T09:16:47.732Z,60.05
2023-04-29T09:19:31.032Z,60.03
2023-04-29T09:21:57.918Z,59.08
2023-04-29T09:24:28.386Z,59.61
2023-04-29T09:26:55.288Z,60.08
2023-04-29T09:29:22.025Z,58.80
2023-04-29T09:31:49.039Z,58.07
2023-04-29T09:34:16.471Z,57.27
2023-04-29T09:36:50.049Z,57.08
2023-04-29T09:39:21.201Z,56.83
2023-04-29T09:41:51.416Z,54.80
2023-04-29T09:44:18.986Z,55.44
2023-04-29T09:46:55.844Z,55.94
2023-04-29T09:49:27.697Z,56.41
2023-04-29T09:52:16.568Z,56.01
2023-04-29T09:54:44.370Z,55.51
2023-04-29T09:57:13.057Z,55.58
2023-04-29T09:59:41.417Z,55.37
2023-04-29T10:02:15.469Z,54.67
2023-04-29T10:04:45.207Z,53.93
2023-04-29T10:07:17.446Z,53.50
2023-04-29T10:09:48.251Z,53.15
2023-04-29T10:12:19.910Z,53.64
2023-04-29T10:15:02.551Z,53.34
2023-04-29T10:17:47.107Z,53.47
2023-04-29T10:20:21.950Z,53.55
2023-04-29T10:22:50.438Z,52.48
2023-04-29T10:25:20.073Z,52.05
2023-04-29T10:27:49.022Z,52.12
2023-04-29T10:30:17.759Z,52.25
2023-04-29T10:32:51.180Z,52.05
2023-04-29T10:35:24.472Z,52.32
2023-04-29T10:37:51.554Z,51.61
2023-04-29T10:40:36.867Z,52.42
2023-04-29T10:43:04.602Z,52.13
2023-04-29T10:45:32.819Z,51.78
2023-04-29T10:48:02.349Z,51.93
2023-04-29T10:50:29.511Z,51.72
2023-04-29T10:52:56.534Z,51.72
2023-04-29T10:55:26.141Z,51.38
2023-04-29T10:57:57.224Z,50.36
2023-04-29T11:00:31.969Z,50.77
2023-04-29T11:02:59.740Z,50.85
2023-04-29T11:05:36.310Z,49.25
2023-04-29T11:08:24.382Z,49.81
2023-04-29T11:10:54.443Z,49.00
2023-04-29T11:13:25.961Z,48.68
2023-04-29T11:16:05.371Z,48.27
2023-04-29T11:18:32.579Z,48.36
2023-04-29T11:21:07.980Z,48.17
2023-04-29T11:23:38.762Z,47.53
2023-04-29T11:26:05.254Z,47.18
2023-04-29T11:28:33.034Z,46.54
2023-04-29T11:31:00.606Z,46.12
2023-04-29T11:33:28.001Z,46.38
2023-04-29T11:35:55.035Z,46.39
2023-04-29T11:38:26.375Z,46.21
2023-04-29T11:40:54.560Z,45.89
2023-04-29T11:43:22.146Z,45.25
2023-04-29T11:45:49.075Z,45.31
2023-04-29T11:48:23.223Z,44.95
2023-04-29T11:50:57.098Z,43.93
2023-04-29T11:53:25.879Z,44.26
2023-04-29T11:55:55.667Z,43.25
2023-04-29T11:58:23.353Z,43.44
2023-04-29T12:00:50.729Z,43.15
2023-04-29T12:03:19.302Z,43.31
2023-04-29T12:05:55.251Z,42.96
2023-04-29T12:08:26.470Z,42.43
2023-04-29T12:10:55.141Z,42.71
2023-04-29T12:13:23.703Z,42.75
2023-04-29T12:15:52.457Z,43.03
2023-04-29T12:18:21.039Z,41.76
2023-04-29T12:20:48.250Z,41.33
2023-04-29T12:23:24.811Z,41.43
2023-04-29T12:25:53.161Z,40.75
2023-04-29T12:28:20.585Z,39.37
2023-04-29T12:30:48.151Z,38.49
2023-04-29T12:33:29.620Z,38.08
2023-04-29T12:35:58.250Z,37.20
2023-04-29T12:38:30.800Z,35.08
2023-04-29T12:41:01.046Z,35.62
2023-04-29T12:43:31.685Z,34.92
2023-04-29T12:46:03.262Z,34.57
2023-04-29T12:48:33.170Z,33.62
2023-04-29T12:51:01.423Z,31.77
2023-04-29T12:53:29.960Z,32.58
2023-04-29T12:55:56.921Z,31.81
2023-04-29T12:58:23.451Z,31.70
2023-04-29T13:00:50.451Z,31.14
2023-04-29T13:03:18.394Z,30.88
2023-04-29T13:05:48.524Z,30.92
2023-04-29T13:08:15.346Z,30.23
2023-04-29T13:10:42.817Z,30.72
2023-04-29T13:13:11.885Z,30.55
2023-04-29T13:15:41.333Z,31.17
2023-04-29T13:18:08.029Z,31.07
2023-04-29T13:20:40.855Z,30.54
2023-04-29T13:23:08.517Z,30.28
2023-04-29T13:25:34.940Z,31.35
2023-04-29T13:28:01.398Z,30.66
2023-04-29T13:30:27.797Z,30.20
2023-04-29T13:32:56.734Z,29.51
2023-04-29T13:35:29.533Z,29.13
2023-04-29T13:37:57.036Z,28.89
2023-04-29T13:40:27.491Z,28.60
2023-04-29T13:43:02.218Z,28.37
2023-04-29T13:45:38.859Z,27.44
2023-04-29T13:48:20.191Z,27.15
2023-04-29T13:53:41.323Z,27.45
2023-04-29T13:59:19.609Z,27.78
2023-04-29T14:03:53.859Z,28.23
2023-04-29T14:06:20.508Z,28.60
2023-04-29T14:08:46.959Z,29.22
2023-04-29T14:11:13.433Z,28.99
2023-04-29T14:13:39.820Z,27.47
2023-04-29T14:16:06.988Z,27.92
2023-04-29T14:18:33.538Z,27.80
2023-04-29T14:20:59.965Z,26.73
2023-04-29T14:23:26.512Z,26.40
2023-04-29T14:25:54.651Z,26.90
2023-04-29T14:28:23.064Z,26.34
2023-04-29T14:30:49.474Z,26.69
2023-04-29T14:33:16.054Z,26.83
2023-04-29T14:35:42.475Z,26.83
2023-04-29T14:38:08.867Z,26.02
2023-04-29T14:40:35.374Z,26.93
2023-04-29T14:43:03.674Z,27.53
2023-04-29T14:45:30.316Z,28.89
2023-04-29T14:47:56.758Z,30.21
2023-04-29T14:50:25.088Z,31.24
2023-04-29T14:52:51.700Z,32.68
2023-04-29T14:55:18.381Z,33.74
2023-04-29T14:57:44.788Z,34.15
2023-04-29T15:00:12.179Z,33.61
2023-04-29T15:02:38.619Z,33.96
2023-04-29T15:05:05.386Z,33.85
2023-04-29T15:07:32.338Z,33.99
2023-04-29T15:09:58.829Z,34.07
2023-04-29T15:12:25.265Z,34.26
2023-04-29T15:14:52.845Z,33.93
2023-04-29T15:17:19.475Z,33.61
2023-04-29T15:19:45.880Z,33.70
2023-04-29T15:22:12.895Z,34.24
2023-04-29T15:24:39.748Z,34.41
2023-04-29T15:27:06.701Z,34.56
2023-04-29T15:29:34.435Z,35.13
2023-04-29T15:32:00.930Z,34.94
2023-04-29T15:34:27.423Z,34.54
2023-04-29T15:36:56.074Z,34.95
2023-04-29T15:39:22.644Z,34.59
2023-04-29T15:41:49.013Z,34.98
2023-04-29T15:44:15.413Z,35.09
2023-04-29T15:46:41.807Z,35.25
2023-04-29T15:49:08.269Z,35.31
2023-04-29T15:51:34.658Z,35.90
2023-04-29T15:54:01.162Z,35.98
2023-04-29T15:56:27.575Z,36.52
2023-04-29T15:58:54.497Z,36.22
2023-04-29T16:01:21.219Z,36.48
2023-04-29T16:03:47.721Z,36.85
2023-04-29T16:06:16.409Z,37.07
2023-04-29T16:08:42.902Z,37.55
2023-04-29T16:11:09.302Z,37.13
2023-04-29T16:13:36.472Z,36.93
2023-04-29T16:16:03.577Z,37.36
2023-04-29T16:18:30.116Z,37.36
2023-04-29T16:20:56.626Z,37.42
2023-04-29T16:23:23.024Z,36.49
2023-04-29T16:25:49.512Z,34.91
2023-04-29T16:28:15.922Z,34.46
2023-04-29T16:30:42.326Z,33.95
2023-04-29T16:33:08.962Z,33.44
2023-04-29T16:35:36.563Z,33.41
2023-04-29T16:38:03.256Z,33.56
2023-04-29T16:40:29.956Z,33.79
2023-04-29T16:42:57.784Z,33.79
2023-04-29T16:45:25.334Z,34.15
2023-04-29T16:47:52.675Z,34.22
2023-04-29T16:50:19.172Z,34.51
2023-04-29T16:52:45.711Z,34.60
2023-04-29T16:55:12.931Z,34.63
2023-04-29T16:57:39.362Z,35.31
2023-04-29T17:00:10.243Z,35.07
2023-04-29T17:02:37.508Z,35.89
2023-04-29T17:05:04.281Z,35.76
2023-04-29T17:07:31.631Z,35.51
2023-04-29T17:09:58.112Z,35.60
2023-04-29T17:12:24.899Z,36.22
2023-04-29T17:14:51.636Z,36.68
2023-04-29T17:17:18.693Z,36.89
2023-04-29T17:19:49.852Z,37.29
2023-04-29T17:22:17.167Z,37.45
2023-04-29T17:24:47.465Z,38.10
2023-04-29T17:27:13.950Z,38.43
2023-04-29T17:29:40.845Z,38.54
2023-04-29T17:32:11.235Z,39.66
2023-04-29T17:34:38.108Z,40.65
2023-04-29T17:37:06.114Z,41.60
2023-04-29T17:39:33.176Z,42.28
2023-04-29T17:42:00.125Z,42.48
2023-04-29T17:44:26.962Z,42.78
2023-04-29T17:46:53.361Z,42.88
2023-04-29T17:49:19.791Z,42.72
2023-04-29T17:51:46.250Z,42.62
2023-04-29T17:54:12.638Z,42.10
2023-04-29T17:56:39.302Z,42.30
2023-04-29T17:59:06.058Z,41.80
2023-04-29T18:01:33.252Z,41.92
2023-04-29T18:03:59.863Z,41.71
2023-04-29T18:06:29.065Z,42.00
2023-04-29T18:08:56.026Z,42.40
2023-04-29T18:11:22.669Z,42.55
2023-04-29T18:13:49.112Z,42.84
2023-04-29T18:16:15.895Z,43.27
2023-04-29T18:18:43.161Z,43.60
2023-04-29T18:21:09.714Z,43.73
2023-04-29T18:23:36.108Z,44.24
2023-04-29T18:26:02.553Z,44.44
2023-04-29T18:28:29.357Z,45.01
2023-04-29T18:30:56.991Z,45.29
2023-04-29T18:33:24.629Z,45.39
2023-04-29T18:35:51.293Z,46.05
2023-04-29T18:38:17.793Z,46.51
2023-04-29T18:40:44.769Z,46.51
2023-04-29T18:43:12.254Z,46.62
2023-04-29T18:45:38.854Z,47.26
2023-04-29T18:48:06.846Z,47.33
2023-04-29T18:50:33.793Z,48.34
2023-04-29T18:53:00.357Z,48.31
2023-04-29T18:55:27.195Z,48.65
2023-04-29T18:57:53.623Z,48.75
2023-04-29T19:00:20.563Z,48.88
2023-04-29T19:02:47.001Z,49.26
2023-04-29T19:05:14.060Z,50.09
2023-04-29T19:07:40.503Z,50.26
2023-04-29T19:10:07.574Z,50.70
2023-04-29T19:12:34.182Z,51.13
2023-04-29T19:15:00.914Z,51.55
2023-04-29T19:17:27.724Z,52.15
2023-04-29T19:19:54.866Z,52.83
2023-04-29T19:22:21.688Z,52.84
2023-04-29T19:24:48.500Z,52.95
2023-04-29T19:27:15.106Z,53.18
2023-04-29T19:29:41.587Z,53.42
2023-04-29T19:32:08.648Z,53.20
2023-04-29T19:34:35.360Z,52.78
2023-04-29T19:37:01.978Z,52.32
2023-04-29T19:39:28.840Z,51.71
2023-04-29T19:41:56.055Z,51.49
2023-04-29T19:44:22.895Z,51.34
2023-04-29T19:46:53.659Z,51.46
2023-04-29T19:49:20.352Z,51.26
2023-04-29T19:51:47.008Z,51.20
2023-04-29T19:54:13.720Z,51.34
2023-04-29T19:56:40.206Z,51.27
2023-04-29T19:59:06.663Z,51.41
2023-04-29T20:01:33.114Z,51.76
2023-04-29T20:03:59.754Z,51.62
2023-04-29T20:06:27.208Z,51.62
2023-04-29T20:08:53.784Z,51.61
2023-04-29T20:11:21.007Z,52.09
2023-04-29T20:13:48.010Z,52.10
2023-04-29T20:16:14.476Z,51.91
2023-04-29T20:18:40.964Z,52.30
2023-04-29T20:21:07.676Z,52.52
2023-04-29T20:23:34.075Z,52.74
2023-04-29T20:26:01.349Z,52.73
2023-04-29T20:28:27.894Z,53.29
2023-04-29T20:30:54.290Z,53.47
2023-04-29T20:33:21.035Z,53.92
2023-04-29T20:35:47.516Z,54.40
2023-04-29T20:38:14.100Z,54.40
2023-04-29T20:40:40.611Z,55.10
2023-04-29T20:43:07.735Z,55.41
2023-04-29T20:45:36.967Z,55.71
2023-04-29T20:48:03.841Z,56.71
2023-04-29T20:50:30.565Z,57.01
2023-04-29T20:52:57.064Z,57.71
2023-04-29T20:55:23.634Z,58.66
2023-04-29T20:57:50.098Z,58.58
2023-04-29T21:00:16.648Z,59.04
2023-04-29T21:02:43.074Z,59.21
2023-04-29T21:05:10.132Z,59.60
2023-04-29T21:07:37.285Z,59.66
2023-04-29T21:10:04.535Z,60.31
2023-04-29T21:12:30.992Z,60.32
2023-04-29T21:14:57.408Z,60.30
2023-04-29T21:17:23.815Z,60.98
2023-04-29T21:19:50.292Z,61.12
2023-04-29T21:22:16.716Z,61.37
2023-04-29T21:24:43.142Z,61.37
2023-04-29T21:27:09.547Z,61.73
2023-04-29T21:29:40.582Z,62.48
2023-04-29T21:32:07.957Z,62.32
2023-04-29T21:34:37.341Z,62.79
2023-04-29T21:37:03.732Z,63.13
2023-04-29T21:39:31.882Z,62.91
2023-04-29T21:42:00.159Z,63.63
2023-04-29T21:44:26.660Z,63.44
2023-04-29T21:46:53.370Z,64.04
2023-04-29T21:49:20.249Z,64.48
2023-04-29T21:51:47.035Z,64.56
2023-04-29T21:54:13.458Z,64.88
2023-04-29T21:56:39.919Z,65.18
2023-04-29T21:59:06.377Z,65.80
2023-04-29T22:01:44.766Z,65.90
2023-04-29T22:04:11.603Z,65.80
2023-04-29T22:06:38.171Z,65.70
2023-04-29T22:09:04.964Z,66.10
2023-04-29T22:11:31.348Z,65.90
2023-04-29T22:13:57.765Z,66.55
2023-04-29T22:16:24.421Z,66.47
2023-04-29T22:18:51.500Z,66.51
2023-04-29T22:21:18.932Z,66.33
2023-04-29T22:23:46.802Z,66.43
2023-04-29T22:26:13.225Z,66.50
2023-04-29T22:28:39.696Z,66.56
2023-04-29T22:31:06.521Z,66.98
2023-04-29T22:33:34.587Z,66.87
2023-04-29T22:36:01.320Z,67.08
2023-04-29T22:38:27.784Z,67.29
2023-04-29T22:40:54.222Z,66.97
2023-04-29T22:43:20.796Z,66.93
2023-04-29T22:45:52.093Z,67.29
2023-04-29T22:48:18.695Z,66.71
2023-04-29T22:51:01.380Z,67.09
2023-04-29T22:53:27.774Z,66.59
2023-04-29T22:55:59.121Z,67.20
2023-04-29T22:58:26.119Z,67.04
2023-04-29T23:00:57.565Z,67.63
2023-04-29T23:03:24.609Z,67.17
2023-04-29T23:05:51.411Z,67.28
2023-04-29T23:08:17.824Z,67.13
2023-04-29T23:10:50.779Z,67.61
2023-04-29T23:13:17.673Z,67.39
2023-04-29T23:15:45.064Z,67.69
2023-04-29T23:18:11.764Z,67.43
2023-04-29T23:20:38.323Z,67.53
2023-04-29T23:23:05.002Z,67.45
2023-04-29T23:25:31.424Z,67.67
2023-04-29T23:27:57.880Z,67.62
2023-04-29T23:30:24.270Z,67.69
2023-04-29T23:32:50.778Z,67.62
2023-04-29T23:35:17.375Z,67.68
2023-04-29T23:37:43.759Z,67.64
2023-04-29T23:40:10.602Z,67.71
2023-04-29T23:42:37.006Z,68.03
2023-04-29T23:45:03.633Z,67.96
2023-04-29T23:47:30.045Z,67.73
2023-04-29T23:49:56.689Z,67.65
2023-04-29T23:52:23.903Z,68.21
2023-04-29T23:54:50.300Z,68.10
2023-04-29T23:57:16.800Z,68.08
2023-04-29T23:59:43.378Z,67.95
